createdAt,value
2022-12-23T00:01:00.539Z,100398.41
2022-12-23T00:03:27.985Z,100396.25
2022-12-23T00:05:54.503Z,100390.59
2022-12-23T00:08:21.534Z,100389.75
2022-12-23T00:10:49.814Z,100395.69
2022-12-23T00:13:16.990Z,100401.09
2022-12-23T00:15:43.326Z,100406.34
2022-12-23T00:18:09.642Z,100411.59
2022-12-23T00:20:36.039Z,100423.81
2022-12-23T00:23:02.375Z,100422.41
2022-12-23T00:25:28.744Z,100423.44
2022-12-23T00:27:55.113Z,100424.41
2022-12-23T00:30:21.497Z,100430.22
2022-12-23T00:32:47.873Z,100434.94
2022-12-23T00:35:14.219Z,100432.69
2022-12-23T00:37:40.531Z,100440.94
2022-12-23T00:40:12.567Z,100443.19
2022-12-23T00:42:38.953Z,100449.19
2022-12-23T00:45:05.724Z,100443.19
2022-12-23T00:47:32.022Z,100449.06
2022-12-23T00:49:58.397Z,100445.63
2022-12-23T00:52:24.829Z,100449.06
2022-12-23T00:54:51.310Z,100445.75
2022-12-23T00:57:17.660Z,100443.50
2022-12-23T00:59:43.980Z,100449.91
2022-12-23T01:02:12.000Z,100463.97
2022-12-23T01:04:38.413Z,100461.84
2022-12-23T01:07:06.053Z,100460.47
2022-12-23T01:09:32.406Z,100464.28
2022-12-23T01:11:58.968Z,100457.63
2022-12-23T01:14:25.656Z,100458.91
2022-12-23T01:16:52.104Z,100459.06
2022-12-23T01:19:18.561Z,100466.31
2022-12-23T01:21:44.894Z,100462.22
2022-12-23T01:24:11.483Z,100477.41
2022-12-23T01:26:38.933Z,100472.31
2022-12-23T01:29:05.281Z,100477.00
2022-12-23T01:31:31.836Z,100479.72
2022-12-23T01:33:58.282Z,100482.13
2022-12-23T01:36:24.676Z,100486.69
2022-12-23T01:38:51.504Z,100488.22
2022-12-23T01:41:21.733Z,100490.63
2022-12-23T01:43:51.188Z,100497.91
2022-12-23T01:46:18.263Z,100492.34
2022-12-23T01:48:49.170Z,100501.44
2022-12-23T01:51:28.468Z,100505.31
2022-12-23T01:53:59.612Z,100506.00
2022-12-23T01:56:33.077Z,100506.00
2022-12-23T01:59:05.365Z,100505.44
2022-12-23T02:01:32.066Z,100515.09
2022-12-23T02:04:02.525Z,100521.81
2022-12-23T02:06:33.802Z,100524.63
2022-12-23T02:09:00.157Z,100530.34
2022-12-23T02:11:41.661Z,100533.59
2022-12-23T02:14:35.666Z,100531.34
2022-12-23T02:17:17.259Z,100525.38
2022-12-23T02:20:04.956Z,100537.03
2022-12-23T02:23:01.633Z,100534.78
2022-12-23T02:25:40.231Z,100535.91
2022-12-23T02:28:12.609Z,100549.00
2022-12-23T02:30:45.773Z,100551.41
2022-12-23T02:33:39.952Z,100565.47
2022-12-23T02:36:22.953Z,100556.53
2022-12-23T02:39:11.714Z,100562.50
2022-12-23T02:41:41.070Z,100576.72
2022-12-23T02:44:28.486Z,100572.75
2022-12-23T02:47:01.303Z,100573.63
2022-12-23T02:49:34.854Z,100579.13
2022-12-23T02:52:06.820Z,100583.69
2022-12-23T02:54:40.742Z,100585.41
2022-12-23T02:57:10.310Z,100591.81
2022-12-23T02:59:41.698Z,100600.91
2022-12-23T03:02:08.152Z,100600.50
2022-12-23T03:04:34.583Z,100608.03
2022-12-23T03:07:07.349Z,100608.19
2022-12-23T03:10:02.339Z,100605.31
2022-12-23T03:12:43.869Z,100604.34
2022-12-23T03:15:32.023Z,100599.50
2022-12-23T03:18:17.250Z,100606.88
2022-12-23T03:21:04.631Z,100600.81
2022-12-23T03:23:55.990Z,100600.22
2022-12-23T03:26:30.027Z,100589.69
2022-12-23T03:29:11.470Z,100587.13
2022-12-23T03:31:40.647Z,100583.16
2022-12-23T03:34:12.975Z,100585.31
2022-12-23T03:36:47.451Z,100584.72
2022-12-23T03:39:19.213Z,100594.09
2022-12-23T03:41:55.696Z,100601.34
2022-12-23T03:44:35.291Z,100591.25
2022-12-23T03:47:05.534Z,100604.91
2022-12-23T03:49:53.265Z,100607.59
2022-12-23T03:52:27.184Z,100597.81
2022-12-23T03:54:55.966Z,100596.81
2022-12-23T03:57:28.387Z,100601.47
2022-12-23T03:59:54.915Z,100599.06
2022-12-23T04:02:40.320Z,100613.56
2022-12-23T04:05:21.869Z,100620.94
2022-12-23T04:08:11.016Z,100624.38
2022-12-23T04:10:37.777Z,100620.81
2022-12-23T04:13:04.523Z,100628.91
2022-12-23T04:15:31.221Z,100629.34
2022-12-23T04:17:58.023Z,100640.84
2022-12-23T04:20:25.452Z,100635.88
2022-12-23T04:22:52.004Z,100638.59
2022-12-23T04:25:18.465Z,100642.25
2022-12-23T04:27:44.772Z,100648.66
2022-12-23T04:30:12.769Z,100643.84
2022-12-23T04:32:39.474Z,100643.69
2022-12-23T04:35:06.696Z,100656.47
2022-12-23T04:37:33.145Z,100645.81
2022-12-23T04:39:59.564Z,100637.44
2022-12-23T04:42:25.883Z,100642.84
2022-12-23T04:44:52.333Z,100642.00
2022-12-23T04:47:18.722Z,100645.69
2022-12-23T04:49:45.085Z,100641.28
2022-12-23T04:52:11.604Z,100643.13
2022-12-23T04:54:45.511Z,100632.19
2022-12-23T04:57:12.827Z,100634.16
2022-12-23T04:59:39.313Z,100631.59
2022-12-23T05:02:05.810Z,100639.84
2022-12-23T05:04:32.470Z,100631.47
2022-12-23T05:06:59.154Z,100629.91
2022-12-23T05:09:25.473Z,100624.50
2022-12-23T05:11:51.811Z,100627.94
2022-12-23T05:14:18.243Z,100630.91
2022-12-23T05:16:44.698Z,100636.47
2022-12-23T05:19:11.269Z,100629.91
2022-12-23T05:21:37.952Z,100637.56
2022-12-23T05:24:04.396Z,100648.50
2022-12-23T05:26:30.782Z,100654.06
2022-12-23T05:28:57.149Z,100656.91
2022-12-23T05:31:26.548Z,100658.19
2022-12-23T05:33:53.069Z,100667.56
2022-12-23T05:36:19.812Z,100673.25
2022-12-23T05:38:46.259Z,100670.94
2022-12-23T05:41:12.709Z,100678.34
2022-12-23T05:43:39.206Z,100681.75
2022-12-23T05:46:05.629Z,100680.19
2022-12-23T05:48:32.078Z,100683.91
2022-12-23T05:50:58.572Z,100687.13
2022-12-23T05:53:25.180Z,100681.03
2022-12-23T05:55:51.584Z,100679.91
2022-12-23T05:58:17.953Z,100676.66
2022-12-23T06:00:44.609Z,100676.53
2022-12-23T06:03:12.611Z,100677.06
2022-12-23T06:05:39.782Z,100660.84
2022-12-23T06:08:06.252Z,100664.28
2022-12-23T06:10:32.825Z,100661.00
2022-12-23T06:12:59.183Z,100665.81
2022-12-23T06:15:25.691Z,100662.13
2022-12-23T06:17:52.114Z,100669.34
2022-12-23T06:20:20.932Z,100659.41
2022-12-23T06:22:47.898Z,100656.00
2022-12-23T06:25:14.318Z,100650.00
2022-12-23T06:27:40.775Z,100650.31
2022-12-23T06:30:10.644Z,100643.22
2022-12-23T06:32:39.494Z,100649.19
2022-12-23T06:35:09.942Z,100644.91
2022-12-23T06:37:36.656Z,100665.63
2022-12-23T06:40:04.204Z,100659.97
2022-12-23T06:42:30.564Z,100661.25
2022-12-23T06:44:58.431Z,100661.66
2022-12-23T06:47:24.997Z,100679.41
2022-12-23T06:49:51.602Z,100677.44
2022-12-23T06:52:18.082Z,100685.38
2022-12-23T06:54:45.709Z,100679.25
2022-12-23T06:57:12.823Z,100688.94
2022-12-23T06:59:39.160Z,100688.94
2022-12-23T07:02:05.942Z,100693.47
2022-12-23T07:04:33.762Z,100690.91
2022-12-23T07:07:00.268Z,100694.47
2022-12-23T07:09:26.601Z,100693.63
2022-12-23T07:11:53.024Z,100706.09
2022-12-23T07:14:19.384Z,100703.69
2022-12-23T07:16:45.811Z,100712.78
2022-12-23T07:19:12.252Z,100710.38
2022-12-23T07:21:38.543Z,100707.78
2022-12-23T07:24:05.867Z,100714.03
2022-12-23T07:26:32.157Z,100714.75
2022-12-23T07:28:58.600Z,100711.06
2022-12-23T07:31:24.960Z,100718.31
2022-12-23T07:33:51.390Z,100718.19
2022-12-23T07:36:17.728Z,100717.19
2022-12-23T07:38:44.235Z,100718.91
2022-12-23T07:41:10.566Z,100700.84
2022-12-23T07:43:36.861Z,100694.63
2022-12-23T07:46:07.793Z,100696.59
2022-12-23T07:48:34.164Z,100702.00
2022-12-23T07:51:04.109Z,100698.28
2022-12-23T07:53:30.549Z,100698.28
2022-12-23T07:55:57.111Z,100683.09
2022-12-23T07:58:24.552Z,100691.34
2022-12-23T08:00:50.987Z,100688.78
2022-12-23T08:03:17.743Z,100694.19
2022-12-23T08:05:44.195Z,100695.72
2022-12-23T08:08:10.513Z,100682.25
2022-12-23T08:10:39.198Z,100685.94
2022-12-23T08:13:09.328Z,100678.00
2022-12-23T08:15:35.693Z,100689.75
2022-12-23T08:18:02.036Z,100690.63
2022-12-23T08:20:28.484Z,100688.88
2022-12-23T08:22:55.138Z,100675.69
2022-12-23T08:25:21.479Z,100673.56
2022-12-23T08:27:47.827Z,100670.16
2022-12-23T08:30:14.416Z,100686.47
2022-12-23T08:32:40.728Z,100666.88
2022-12-23T08:35:07.432Z,100663.34
2022-12-23T08:37:34.067Z,100664.88
2022-12-23T08:40:00.402Z,100659.63
2022-12-23T08:42:26.720Z,100662.06
2022-12-23T08:44:53.039Z,100652.41
2022-12-23T08:47:19.435Z,100666.75
2022-12-23T08:49:45.774Z,100648.56
2022-12-23T08:52:12.295Z,100647.59
2022-12-23T08:54:38.617Z,100651.25
2022-12-23T08:57:04.920Z,100646.88
2022-12-23T08:59:31.339Z,100642.19
2022-12-23T09:01:57.936Z,100637.53
2022-12-23T09:04:24.277Z,100636.78
2022-12-23T09:06:50.584Z,100625.00
2022-12-23T09:09:16.872Z,100632.13
2022-12-23T09:11:43.324Z,100625.72
2022-12-23T09:14:12.416Z,100619.47
2022-12-23T09:16:39.431Z,100620.31
2022-12-23T09:19:06.281Z,100622.88
2022-12-23T09:21:32.668Z,100614.78
2022-12-23T09:23:59.249Z,100615.38
2022-12-23T09:26:28.403Z,100609.97
2022-12-23T09:28:55.673Z,100608.84
2022-12-23T09:31:23.605Z,100607.00
2022-12-23T09:33:52.814Z,100616.22
2022-12-23T09:36:20.283Z,100616.94
2022-12-23T09:38:46.846Z,100616.81
2022-12-23T09:41:24.875Z,100618.66
2022-12-23T09:43:57.077Z,100616.81
2022-12-23T09:46:26.918Z,100608.44
2022-12-23T09:49:08.908Z,100613.69
2022-12-23T09:51:35.237Z,100602.88
2022-12-23T09:54:22.085Z,100597.34
2022-12-23T09:57:00.539Z,100592.66
2022-12-23T09:59:50.264Z,100580.19
2022-12-23T10:02:24.492Z,100564.81
2022-12-23T10:05:00.964Z,100561.00
2022-12-23T10:08:22.807Z,100559.00
2022-12-23T10:10:54.168Z,100540.56
2022-12-23T10:13:35.330Z,100546.38
2022-12-23T10:16:13.425Z,100541.94
2022-12-23T10:18:46.454Z,100535.44
2022-12-23T10:21:20.403Z,100540.38
2022-12-23T10:23:52.138Z,100527.75
2022-12-23T10:26:43.006Z,100530.44
2022-12-23T10:29:21.244Z,100523.06
2022-12-23T10:32:06.011Z,100525.63
2022-12-23T10:35:13.118Z,100527.31
2022-12-23T10:37:49.293Z,100520.06
2022-12-23T10:40:26.273Z,100523.63
2022-12-23T10:43:22.709Z,100514.53
2022-12-23T10:45:56.087Z,100514.69
2022-12-23T10:48:59.974Z,100513.53
2022-12-23T10:51:36.808Z,100508.00
2022-12-23T10:54:12.162Z,100498.91
2022-12-23T10:56:38.715Z,100504.16
2022-12-23T10:59:06.705Z,100488.66
2022-12-23T11:01:34.363Z,100502.72
2022-12-23T11:04:04.463Z,100491.78
2022-12-23T11:06:37.483Z,100488.22
2022-12-23T11:09:06.798Z,100485.94
2022-12-23T11:11:56.438Z,100484.94
2022-12-23T11:14:34.370Z,100478.69
2022-12-23T11:17:01.171Z,100468.75
2022-12-23T11:19:27.753Z,100468.59
2022-12-23T11:21:59.552Z,100477.41
2022-12-23T11:24:30.506Z,100481.09
2022-12-23T11:27:06.221Z,100481.94
2022-12-23T11:29:39.026Z,100477.56
2022-12-23T11:32:20.395Z,100472.16
2022-12-23T11:34:48.391Z,100457.78
2022-12-23T11:37:42.942Z,100445.97
2022-12-23T11:40:24.286Z,100441.28
2022-12-23T11:42:57.605Z,100430.50
2022-12-23T11:45:27.757Z,100425.78
2022-12-23T11:47:54.318Z,100411.59
2022-12-23T11:50:20.585Z,100400.06
2022-12-23T11:52:56.134Z,100395.69
2022-12-23T11:55:27.988Z,100386.56
2022-12-23T11:57:56.331Z,100371.22
2022-12-23T12:00:26.419Z,100373.22
2022-12-23T12:02:56.231Z,100369.38
2022-12-23T12:05:36.863Z,100369.66
2022-12-23T12:08:11.498Z,100369.09
2022-12-23T12:10:39.613Z,100353.75
2022-12-23T12:13:15.923Z,100348.50
2022-12-23T12:15:56.532Z,100339.69
2022-12-23T12:18:23.825Z,100345.97
2022-12-23T12:20:55.581Z,100353.19
2022-12-23T12:23:40.603Z,100343.25
2022-12-23T12:26:27.838Z,100347.66
2022-12-23T12:29:02.650Z,100347.81
2022-12-23T12:31:39.504Z,100333.31
2022-12-23T12:34:15.545Z,100306.59
2022-12-23T12:37:10.171Z,100299.34
2022-12-23T12:39:49.450Z,100285.16
2022-12-23T12:42:25.561Z,100292.25
2022-12-23T12:45:16.768Z,100281.47
2022-12-23T12:48:18.584Z,100275.34
2022-12-23T12:51:01.198Z,100265.53
2022-12-23T12:53:28.335Z,100253.75
2022-12-23T12:56:05.130Z,100255.75
2022-12-23T12:58:31.569Z,100247.66
2022-12-23T13:01:37.496Z,100245.66
2022-12-23T13:04:29.581Z,100242.25
2022-12-23T13:07:08.218Z,100231.44
2022-12-23T13:10:12.470Z,100232.16
2022-12-23T13:12:59.325Z,100225.03
2022-12-23T13:15:42.858Z,100215.09
2022-12-23T13:18:32.863Z,100223.19
2022-12-23T13:21:14.135Z,100219.50
2022-12-23T13:24:15.924Z,100224.22
2022-12-23T13:27:01.202Z,100212.56
2022-12-23T13:29:57.603Z,100199.06
2022-12-23T13:33:00.901Z,100194.34
2022-12-23T13:36:06.433Z,100194.06
2022-12-23T13:38:45.141Z,100187.66
2022-12-23T13:41:35.644Z,100197.59
2022-12-23T13:44:08.524Z,100195.88
2022-12-23T13:46:51.311Z,100214.50
2022-12-23T13:49:35.028Z,100199.28
2022-12-23T13:52:27.718Z,100180.53
2022-12-23T13:55:23.464Z,100161.25
2022-12-23T13:57:56.033Z,100166.66
2022-12-23T14:00:25.788Z,100159.41
2022-12-23T14:02:58.098Z,100153.16
2022-12-23T14:05:31.862Z,100137.34
2022-12-23T14:08:04.965Z,100142.75
2022-12-23T14:10:32.567Z,100130.81
2022-12-23T14:13:06.785Z,100132.00
2022-12-23T14:15:57.904Z,100123.69
2022-12-23T14:18:59.733Z,100122.38
2022-12-23T14:22:07.651Z,100126.78
2022-12-23T14:25:11.337Z,100120.66
2022-12-23T14:28:13.079Z,100116.66
2022-12-23T14:30:42.203Z,100104.88
2022-12-23T14:33:22.881Z,100108.72
2022-12-23T14:35:55.732Z,100101.94
2022-12-23T14:38:27.410Z,100104.09
2022-12-23T14:40:58.758Z,100107.19
2022-12-23T14:43:32.165Z,100103.50
2022-12-23T14:46:01.028Z,100102.47
2022-12-23T14:48:33.296Z,100110.41
2022-12-23T14:51:08.836Z,100121.91
2022-12-23T14:53:37.664Z,100129.09
2022-12-23T14:56:16.204Z,100128.25
2022-12-23T14:58:58.143Z,100125.69
2022-12-23T15:01:36.998Z,100113.38
2022-12-23T15:04:14.754Z,100119.91
2022-12-23T15:06:47.668Z,100116.34
2022-12-23T15:09:30.528Z,100121.47
2022-12-23T15:12:00.207Z,100103.00
2022-12-23T15:14:39.895Z,100096.91
2022-12-23T15:17:18.386Z,100094.22
2022-12-23T15:19:46.599Z,100097.78
2022-12-23T15:22:22.120Z,100101.50
2022-12-23T15:24:51.830Z,100103.66
2022-12-23T15:27:29.273Z,100100.94
2022-12-23T15:29:57.111Z,100107.19
2022-12-23T15:32:25.193Z,100117.47
2022-12-23T15:34:54.771Z,100100.25
2022-12-23T15:37:30.252Z,100092.31
2022-12-23T15:40:06.248Z,100082.81
2022-12-23T15:42:36.185Z,100091.59
2022-12-23T15:45:22.416Z,100090.75
2022-12-23T15:47:50.325Z,100088.03
2022-12-23T15:50:20.382Z,100082.50
2022-12-23T15:52:49.247Z,100081.94
2022-12-23T15:55:31.015Z,100083.97
2022-12-23T15:57:59.077Z,100084.97
2022-12-23T16:00:38.648Z,100096.94
2022-12-23T16:03:10.435Z,100114.34
2022-12-23T16:05:41.943Z,100115.22
2022-12-23T16:08:30.133Z,100127.34
2022-12-23T16:11:16.978Z,100123.84
2022-12-23T16:14:01.171Z,100122.31
2022-12-23T16:16:41.831Z,100115.22
2022-12-23T16:19:54.750Z,100111.66
2022-12-23T16:22:34.396Z,100105.47
2022-12-23T16:25:11.831Z,100109.66
2022-12-23T16:27:41.341Z,100100.72
2022-12-23T16:30:18.466Z,100114.75
2022-12-23T16:32:47.361Z,100118.16
2022-12-23T16:35:40.518Z,100117.84
2022-12-23T16:38:20.141Z,100115.13
2022-12-23T16:40:48.969Z,100121.22
2022-12-23T16:43:15.975Z,100107.88
2022-12-23T16:45:44.037Z,100129.50
2022-12-23T16:48:15.581Z,100121.22
2022-12-23T16:50:42.022Z,100132.72
2022-12-23T16:53:12.478Z,100128.47
2022-12-23T16:55:41.729Z,100125.06
2022-12-23T16:58:12.896Z,100120.69
2022-12-23T17:00:39.955Z,100130.63
2022-12-23T17:03:07.540Z,100133.00
2022-12-23T17:05:33.986Z,100131.00
2022-12-23T17:08:00.289Z,100135.44
2022-12-23T17:10:28.805Z,100129.34
2022-12-23T17:12:57.335Z,100129.50
2022-12-23T17:15:25.404Z,100130.84
2022-12-23T17:17:53.102Z,100138.97
2022-12-23T17:20:21.453Z,100130.69
2022-12-23T17:22:51.113Z,100135.28
2022-12-23T17:25:22.940Z,100138.22
2022-12-23T17:27:53.583Z,100144.44
2022-12-23T17:30:23.024Z,100146.94
2022-12-23T17:32:57.519Z,100145.75
2022-12-23T17:35:25.677Z,100144.97
2022-12-23T17:37:53.400Z,100146.75
2022-12-23T17:40:23.612Z,100141.88
2022-12-23T17:42:50.035Z,100141.94
2022-12-23T17:45:25.905Z,100146.16
2022-12-23T17:47:52.923Z,100145.06
2022-12-23T17:50:20.343Z,100140.69
2022-12-23T17:52:47.233Z,100140.59
2022-12-23T17:55:20.029Z,100151.97
2022-12-23T17:57:50.249Z,100144.88
2022-12-23T18:00:27.835Z,100160.13
2022-12-23T18:02:58.118Z,100155.16
2022-12-23T18:05:32.860Z,100145.31
2022-12-23T18:08:00.859Z,100157.88
2022-12-23T18:10:30.707Z,100145.00
2022-12-23T18:12:59.840Z,100158.50
2022-12-23T18:15:32.787Z,100169.41
2022-12-23T18:18:00.951Z,100175.63
2022-12-23T18:20:27.885Z,100171.00
2022-12-23T18:22:54.909Z,100171.50
2022-12-23T18:25:27.028Z,100170.84
2022-12-23T18:27:54.156Z,100174.72
2022-12-23T18:30:21.107Z,100181.00
2022-12-23T18:32:47.649Z,100179.84
2022-12-23T18:35:26.826Z,100184.03
2022-12-23T18:37:53.660Z,100191.81
2022-12-23T18:40:20.564Z,100200.09
2022-12-23T18:42:47.039Z,100199.44
2022-12-23T18:45:21.461Z,100197.22
2022-12-23T18:47:47.873Z,100202.09
2022-12-23T18:50:14.393Z,100204.81
2022-12-23T18:52:41.092Z,100199.06
2022-12-23T18:55:07.815Z,100206.81
2022-12-23T18:57:34.127Z,100209.75
2022-12-23T19:00:00.464Z,100214.47
2022-12-23T19:02:29.121Z,100217.00
2022-12-23T19:04:55.462Z,100215.31
2022-12-23T19:07:21.853Z,100224.44
2022-12-23T19:09:48.453Z,100232.91
2022-12-23T19:12:15.372Z,100226.47
2022-12-23T19:14:41.748Z,100220.34
2022-12-23T19:17:08.199Z,100215.63
2022-12-23T19:19:34.699Z,100224.25
2022-12-23T19:22:03.118Z,100218.50
2022-12-23T19:24:30.191Z,100219.16
2022-12-23T19:26:56.599Z,100226.41
2022-12-23T19:29:22.959Z,100232.69
2022-12-23T19:31:49.378Z,100235.53
2022-12-23T19:34:16.180Z,100240.84
2022-12-23T19:36:43.277Z,100255.06
2022-12-23T19:39:12.980Z,100256.22
2022-12-23T19:41:39.265Z,100252.28
2022-12-23T19:44:05.583Z,100256.22
2022-12-23T19:46:31.992Z,100261.97
2022-12-23T19:48:58.532Z,100270.09
2022-12-23T19:51:24.957Z,100274.69
2022-12-23T19:53:51.892Z,100268.28
2022-12-23T19:56:20.208Z,100269.44
2022-12-23T19:58:48.033Z,100281.28
2022-12-23T20:01:20.260Z,100283.50
2022-12-23T20:03:48.289Z,100295.19
2022-12-23T20:06:20.730Z,100291.06
2022-12-23T20:08:47.300Z,100295.19
2022-12-23T20:11:20.875Z,100310.25
2022-12-23T20:13:50.593Z,100303.47
2022-12-23T20:16:19.540Z,100311.25
2022-12-23T20:18:45.910Z,100315.97
2022-12-23T20:21:12.736Z,100310.72
2022-12-23T20:23:39.374Z,100310.88
2022-12-23T20:26:06.306Z,100307.69
2022-12-23T20:28:32.939Z,100313.25
2022-12-23T20:31:06.781Z,100316.66
2022-12-23T20:33:37.904Z,100325.84
2022-12-23T20:36:08.491Z,100317.00
2022-12-23T20:38:35.380Z,100337.63
2022-12-23T20:41:01.757Z,100335.59
2022-12-23T20:43:28.346Z,100329.50
2022-12-23T20:45:54.936Z,100338.78
2022-12-23T20:48:26.867Z,100349.94
2022-12-23T20:50:56.239Z,100341.66
2022-12-23T20:53:22.614Z,100361.44
2022-12-23T20:55:50.055Z,100363.47
2022-12-23T20:58:16.450Z,100376.47
2022-12-23T21:00:42.773Z,100374.44
2022-12-23T21:03:10.763Z,100385.03
2022-12-23T21:05:37.240Z,100382.41
2022-12-23T21:08:03.716Z,100388.13
2022-12-23T21:10:30.063Z,100389.13
2022-12-23T21:12:56.418Z,100401.47
2022-12-23T21:15:22.766Z,100398.34
2022-12-23T21:17:49.094Z,100398.00
2022-12-23T21:20:15.703Z,100407.16
2022-12-23T21:22:42.049Z,100409.84
2022-12-23T21:25:08.799Z,100411.47
2022-12-23T21:27:35.103Z,100424.84
2022-12-23T21:30:01.567Z,100423.28
2022-12-23T21:32:27.868Z,100410.09
2022-12-23T21:34:54.210Z,100430.03
2022-12-23T21:37:20.722Z,100438.69
2022-12-23T21:39:47.050Z,100434.44
2022-12-23T21:42:13.359Z,100442.38
2022-12-23T21:44:39.641Z,100449.53
2022-12-23T21:47:06.051Z,100452.81
2022-12-23T21:49:32.434Z,100449.81
2022-12-23T21:51:58.775Z,100463.97
2022-12-23T21:54:25.167Z,100464.28
2022-12-23T21:56:51.563Z,100463.56
2022-12-23T21:59:17.979Z,100462.88
2022-12-23T22:01:44.417Z,100469.56
2022-12-23T22:04:11.435Z,100466.19
2022-12-23T22:06:40.537Z,100470.91
2022-12-23T22:09:07.966Z,100477.22
2022-12-23T22:11:37.688Z,100485.94
2022-12-23T22:14:06.366Z,100497.66
2022-12-23T22:16:34.429Z,100493.94
2022-12-23T22:19:01.746Z,100516.59
2022-12-23T22:21:30.410Z,100517.59
2022-12-23T22:23:57.793Z,100521.28
2022-12-23T22:26:26.925Z,100522.41
2022-12-23T22:28:57.969Z,100528.09
2022-12-23T22:31:45.968Z,100536.53
2022-12-23T22:34:18.237Z,100538.22
2022-12-23T22:36:45.324Z,100535.66
2022-12-23T22:39:20.198Z,100550.72
2022-12-23T22:41:47.245Z,100548.16
2022-12-23T22:44:13.664Z,100537.91
2022-12-23T22:46:40.350Z,100540.75
2022-12-23T22:49:06.902Z,100546.16
2022-12-23T22:51:33.249Z,100545.31
2022-12-23T22:54:01.823Z,100556.84
2022-12-23T22:56:28.386Z,100559.22
2022-12-23T22:58:54.790Z,100560.09
2022-12-23T23:01:26.586Z,100570.91
2022-12-23T23:03:54.457Z,100567.06
2022-12-23T23:06:20.755Z,100567.91
2022-12-23T23:08:47.046Z,100575.19
2022-12-23T23:11:13.344Z,100580.59
2022-12-23T23:13:39.737Z,100576.88
2022-12-23T23:16:06.543Z,100574.03
2022-12-23T23:18:33.213Z,100584.53
2022-12-23T23:20:59.821Z,100582.28
2022-12-23T23:23:26.935Z,100585.53
2022-12-23T23:25:53.462Z,100588.41
2022-12-23T23:28:19.783Z,100590.41
2022-12-23T23:30:46.432Z,100585.28
2022-12-23T23:33:13.075Z,100598.56
2022-12-23T23:35:39.606Z,100601.81
2022-12-23T23:38:06.166Z,100597.69
2022-12-23T23:40:32.647Z,100610.06
2022-12-23T23:42:59.182Z,100603.25
2022-12-23T23:45:25.520Z,100620.34
2022-12-23T23:47:51.889Z,100616.06
2022-12-23T23:50:18.305Z,100633.16
2022-12-23T23:52:44.839Z,100630.28
2022-12-23T23:55:11.442Z,100634.25
2022-12-23T23:57:38.139Z,100630.44
